sensor_id;sensor_type;location;lat;lon;timestamp;P1;durP1;ratioP1;P2;durP2;ratioP2
34144;SDS011;69555;53.014;8.886;2023-05-07T00:00:38;25.02;;;17.92;;
34144;SDS011;69555;53.014;8.886;2023-05-07T00:03:05;28.92;;;17.73;;
34144;SDS011;69555;53.014;8.886;2023-05-07T00:05:31;28.08;;;19.42;;
34144;SDS011;69555;53.014;8.886;2023-05-07T00:07:58;26.17;;;17.88;;
34144;SDS011;69555;53.014;8.886;2023-05-07T00:10:25;28.17;;;18.48;;
34144;SDS011;69555;53.014;8.886;2023-05-07T00:12:53;27.85;;;17.75;;
34144;SDS011;69555;53.014;8.886;2023-05-07T00:15:19;29.42;;;19.33;;
34144;SDS011;69555;53.014;8.886;2023-05-07T00:17:44;32.90;;;22.00;;
34144;SDS011;69555;53.014;8.886;2023-05-07T00:20:10;31.13;;;21.73;;
34144;SDS011;69555;53.014;8.886;2023-05-07T00:22:36;35.75;;;20.90;;
34144;SDS011;69555;53.014;8.886;2023-05-07T00:25:03;35.35;;;22.67;;
34144;SDS011;69555;53.014;8.886;2023-05-07T00:27:30;29.60;;;21.50;;
34144;SDS011;69555;53.014;8.886;2023-05-07T00:29:55;35.85;;;23.10;;
34144;SDS011;69555;53.014;8.886;2023-05-07T00:32:20;34.95;;;22.85;;
34144;SDS011;69555;53.014;8.886;2023-05-07T00:34:47;34.92;;;23.60;;
34144;SDS011;69555;53.014;8.886;2023-05-07T00:37:13;34.30;;;23.27;;
34144;SDS011;69555;53.014;8.886;2023-05-07T00:39:40;36.03;;;21.83;;
34144;SDS011;69555;53.014;8.886;2023-05-07T00:42:07;35.05;;;22.70;;
34144;SDS011;69555;53.014;8.886;2023-05-07T00:44:33;35.58;;;23.50;;
34144;SDS011;69555;53.014;8.886;2023-05-07T00:47:01;32.15;;;22.30;;
34144;SDS011;69555;53.014;8.886;2023-05-07T00:49:44;40.27;;;23.23;;
34144;SDS011;69555;53.014;8.886;2023-05-07T00:52:16;34.38;;;23.45;;
34144;SDS011;69555;53.014;8.886;2023-05-07T00:54:43;37.50;;;23.17;;
34144;SDS011;69555;53.014;8.886;2023-05-07T00:57:11;33.70;;;22.52;;
34144;SDS011;69555;53.014;8.886;2023-05-07T00:59:38;33.97;;;22.17;;
34144;SDS011;69555;53.014;8.886;2023-05-07T01:02:06;33.40;;;21.50;;
34144;SDS011;69555;53.014;8.886;2023-05-07T01:04:33;37.25;;;23.20;;
34144;SDS011;69555;53.014;8.886;2023-05-07T01:07:19;36.08;;;22.58;;
34144;SDS011;69555;53.014;8.886;2023-05-07T01:09:47;30.73;;;21.20;;
34144;SDS011;69555;53.014;8.886;2023-05-07T01:12:14;32.33;;;22.38;;
34144;SDS011;69555;53.014;8.886;2023-05-07T01:14:41;33.03;;;22.25;;
34144;SDS011;69555;53.014;8.886;2023-05-07T01:17:08;32.55;;;21.05;;
34144;SDS011;69555;53.014;8.886;2023-05-07T01:19:35;31.80;;;19.95;;
34144;SDS011;69555;53.014;8.886;2023-05-07T01:22:05;35.92;;;20.20;;
34144;SDS011;69555;53.014;8.886;2023-05-07T01:24:33;31.08;;;20.67;;
34144;SDS011;69555;53.014;8.886;2023-05-07T01:27:01;36.38;;;21.92;;
34144;SDS011;69555;53.014;8.886;2023-05-07T01:29:28;31.20;;;20.40;;
34144;SDS011;69555;53.014;8.886;2023-05-07T01:31:54;35.13;;;22.40;;
34144;SDS011;69555;53.014;8.886;2023-05-07T01:34:22;35.80;;;21.35;;
34144;SDS011;69555;53.014;8.886;2023-05-07T01:36:47;33.38;;;21.35;;
34144;SDS011;69555;53.014;8.886;2023-05-07T01:39:15;33.50;;;20.67;;
34144;SDS011;69555;53.014;8.886;2023-05-07T01:41:43;34.58;;;21.50;;
34144;SDS011;69555;53.014;8.886;2023-05-07T01:44:10;34.53;;;22.05;;
34144;SDS011;69555;53.014;8.886;2023-05-07T01:46:38;35.40;;;21.60;;
34144;SDS011;69555;53.014;8.886;2023-05-07T01:49:05;32.53;;;20.13;;
34144;SDS011;69555;53.014;8.886;2023-05-07T01:51:32;32.63;;;21.05;;
34144;SDS011;69555;53.014;8.886;2023-05-07T01:53:59;31.40;;;21.05;;
34144;SDS011;69555;53.014;8.886;2023-05-07T01:56:25;31.05;;;20.42;;
34144;SDS011;69555;53.014;8.886;2023-05-07T01:58:50;34.97;;;21.13;;
34144;SDS011;69555;53.014;8.886;2023-05-07T02:01:17;30.60;;;20.15;;
34144;SDS011;69555;53.014;8.886;2023-05-07T02:03:43;31.20;;;19.70;;
34144;SDS011;69555;53.014;8.886;2023-05-07T02:06:08;34.85;;;21.67;;
34144;SDS011;69555;53.014;8.886;2023-05-07T02:08:35;28.95;;;19.40;;
34144;SDS011;69555;53.014;8.886;2023-05-07T02:11:02;33.42;;;20.40;;
34144;SDS011;69555;53.014;8.886;2023-05-07T02:13:33;30.40;;;20.25;;
34144;SDS011;69555;53.014;8.886;2023-05-07T02:16:01;35.83;;;21.30;;
34144;SDS011;69555;53.014;8.886;2023-05-07T02:18:27;32.90;;;19.63;;
34144;SDS011;69555;53.014;8.886;2023-05-07T02:20:53;36.95;;;21.23;;
34144;SDS011;69555;53.014;8.886;2023-05-07T02:23:18;37.90;;;22.52;;
34144;SDS011;69555;53.014;8.886;2023-05-07T02:25:44;33.13;;;18.88;;
34144;SDS011;69555;53.014;8.886;2023-05-07T02:28:11;31.63;;;19.58;;
34144;SDS011;69555;53.014;8.886;2023-05-07T02:30:38;32.05;;;19.77;;
34144;SDS011;69555;53.014;8.886;2023-05-07T02:33:04;32.40;;;20.40;;
34144;SDS011;69555;53.014;8.886;2023-05-07T02:35:32;39.90;;;21.33;;
34144;SDS011;69555;53.014;8.886;2023-05-07T02:37:59;33.50;;;20.55;;
34144;SDS011;69555;53.014;8.886;2023-05-07T02:40:25;31.20;;;19.35;;
34144;SDS011;69555;53.014;8.886;2023-05-07T02:42:51;30.65;;;20.10;;
34144;SDS011;69555;53.014;8.886;2023-05-07T02:45:18;35.17;;;20.23;;
34144;SDS011;69555;53.014;8.886;2023-05-07T02:47:43;33.75;;;19.83;;
34144;SDS011;69555;53.014;8.886;2023-05-07T02:50:08;34.70;;;20.10;;
34144;SDS011;69555;53.014;8.886;2023-05-07T02:52:34;32.20;;;20.13;;
34144;SDS011;69555;53.014;8.886;2023-05-07T02:55:00;30.60;;;18.50;;
34144;SDS011;69555;53.014;8.886;2023-05-07T02:57:25;31.42;;;18.60;;
34144;SDS011;69555;53.014;8.886;2023-05-07T02:59:51;29.45;;;18.33;;
34144;SDS011;69555;53.014;8.886;2023-05-07T03:02:17;27.90;;;18.02;;
34144;SDS011;69555;53.014;8.886;2023-05-07T03:04:43;30.00;;;17.83;;
34144;SDS011;69555;53.014;8.886;2023-05-07T03:07:08;30.48;;;17.65;;
34144;SDS011;69555;53.014;8.886;2023-05-07T03:09:34;30.58;;;18.58;;
34144;SDS011;69555;53.014;8.886;2023-05-07T03:12:00;26.67;;;17.00;;
34144;SDS011;69555;53.014;8.886;2023-05-07T03:14:27;28.80;;;16.58;;
34144;SDS011;69555;53.014;8.886;2023-05-07T03:16:54;28.27;;;17.52;;
34144;SDS011;69555;53.014;8.886;2023-05-07T03:19:20;31.80;;;18.80;;
34144;SDS011;69555;53.014;8.886;2023-05-07T03:21:45;27.95;;;17.17;;
34144;SDS011;69555;53.014;8.886;2023-05-07T03:24:11;26.10;;;17.25;;
34144;SDS011;69555;53.014;8.886;2023-05-07T03:26:36;27.98;;;19.08;;
34144;SDS011;69555;53.014;8.886;2023-05-07T03:29:02;30.83;;;18.25;;
34144;SDS011;69555;53.014;8.886;2023-05-07T03:31:29;32.35;;;18.73;;
34144;SDS011;69555;53.014;8.886;2023-05-07T03:33:55;26.17;;;16.10;;
34144;SDS011;69555;53.014;8.886;2023-05-07T03:36:22;27.67;;;17.98;;
34144;SDS011;69555;53.014;8.886;2023-05-07T03:38:48;32.22;;;17.92;;
34144;SDS011;69555;53.014;8.886;2023-05-07T03:41:14;27.83;;;18.02;;
34144;SDS011;69555;53.014;8.886;2023-05-07T03:43:39;27.17;;;17.67;;
34144;SDS011;69555;53.014;8.886;2023-05-07T03:46:06;25.90;;;16.67;;
34144;SDS011;69555;53.014;8.886;2023-05-07T03:48:32;27.55;;;17.40;;
34144;SDS011;69555;53.014;8.886;2023-05-07T03:50:59;32.80;;;19.27;;
34144;SDS011;69555;53.014;8.886;2023-05-07T03:53:25;33.05;;;19.95;;
34144;SDS011;69555;53.014;8.886;2023-05-07T03:55:50;36.92;;;20.55;;
34144;SDS011;69555;53.014;8.886;2023-05-07T03:58:15;35.10;;;20.38;;
34144;SDS011;69555;53.014;8.886;2023-05-07T04:00:43;32.78;;;18.83;;
34144;SDS011;69555;53.014;8.886;2023-05-07T04:03:09;30.25;;;19.48;;
34144;SDS011;69555;53.014;8.886;2023-05-07T04:05:35;32.25;;;19.63;;
34144;SDS011;69555;53.014;8.886;2023-05-07T04:08:00;35.17;;;19.35;;
34144;SDS011;69555;53.014;8.886;2023-05-07T04:10:29;33.20;;;18.85;;
34144;SDS011;69555;53.014;8.886;2023-05-07T04:12:54;32.78;;;19.83;;
34144;SDS011;69555;53.014;8.886;2023-05-07T04:15:19;29.73;;;19.58;;
34144;SDS011;69555;53.014;8.886;2023-05-07T04:17:46;39.92;;;21.98;;
34144;SDS011;69555;53.014;8.886;2023-05-07T04:20:14;35.53;;;20.50;;
34144;SDS011;69555;53.014;8.886;2023-05-07T04:22:41;33.42;;;19.00;;
34144;SDS011;69555;53.014;8.886;2023-05-07T04:25:07;33.90;;;19.00;;
34144;SDS011;69555;53.014;8.886;2023-05-07T04:27:34;30.13;;;18.67;;
34144;SDS011;69555;53.014;8.886;2023-05-07T04:29:59;32.72;;;19.55;;
34144;SDS011;69555;53.014;8.886;2023-05-07T04:32:26;28.30;;;19.70;;
34144;SDS011;69555;53.014;8.886;2023-05-07T04:34:54;32.90;;;19.63;;
34144;SDS011;69555;53.014;8.886;2023-05-07T04:37:20;36.67;;;20.20;;
34144;SDS011;69555;53.014;8.886;2023-05-07T04:39:45;33.38;;;18.95;;
34144;SDS011;69555;53.014;8.886;2023-05-07T04:42:14;33.85;;;20.38;;
34144;SDS011;69555;53.014;8.886;2023-05-07T04:44:44;28.33;;;18.40;;
34144;SDS011;69555;53.014;8.886;2023-05-07T04:47:10;35.83;;;18.20;;
34144;SDS011;69555;53.014;8.886;2023-05-07T04:49:38;37.35;;;18.95;;
34144;SDS011;69555;53.014;8.886;2023-05-07T04:52:03;29.42;;;18.35;;
34144;SDS011;69555;53.014;8.886;2023-05-07T04:54:29;30.35;;;19.00;;
34144;SDS011;69555;53.014;8.886;2023-05-07T04:56:55;30.58;;;17.45;;
34144;SDS011;69555;53.014;8.886;2023-05-07T04:59:20;29.83;;;18.95;;
34144;SDS011;69555;53.014;8.886;2023-05-07T05:01:46;30.50;;;17.83;;
34144;SDS011;69555;53.014;8.886;2023-05-07T05:04:13;30.73;;;19.08;;
34144;SDS011;69555;53.014;8.886;2023-05-07T05:06:38;30.20;;;17.88;;
34144;SDS011;69555;53.014;8.886;2023-05-07T05:09:04;32.67;;;18.08;;
34144;SDS011;69555;53.014;8.886;2023-05-07T05:11:31;26.80;;;16.58;;
34144;SDS011;69555;53.014;8.886;2023-05-07T05:13:59;31.52;;;18.17;;
34144;SDS011;69555;53.014;8.886;2023-05-07T05:16:24;28.33;;;17.17;;
34144;SDS011;69555;53.014;8.886;2023-05-07T05:18:51;24.75;;;17.55;;
34144;SDS011;69555;53.014;8.886;2023-05-07T05:21:19;24.67;;;16.07;;
34144;SDS011;69555;53.014;8.886;2023-05-07T05:23:44;22.00;;;14.85;;
34144;SDS011;69555;53.014;8.886;2023-05-07T05:26:10;23.75;;;15.48;;
34144;SDS011;69555;53.014;8.886;2023-05-07T05:28:36;21.80;;;15.55;;
34144;SDS011;69555;53.014;8.886;2023-05-07T05:31:02;25.00;;;14.85;;
34144;SDS011;69555;53.014;8.886;2023-05-07T05:33:29;22.25;;;14.43;;
34144;SDS011;69555;53.014;8.886;2023-05-07T05:35:56;20.80;;;12.93;;
34144;SDS011;69555;53.014;8.886;2023-05-07T05:38:22;18.98;;;13.02;;
34144;SDS011;69555;53.014;8.886;2023-05-07T05:40:49;17.55;;;13.07;;
34144;SDS011;69555;53.014;8.886;2023-05-07T05:43:15;19.38;;;12.15;;
34144;SDS011;69555;53.014;8.886;2023-05-07T05:45:42;19.10;;;12.63;;
34144;SDS011;69555;53.014;8.886;2023-05-07T05:48:08;19.77;;;12.02;;
34144;SDS011;69555;53.014;8.886;2023-05-07T05:50:35;17.58;;;12.40;;
34144;SDS011;69555;53.014;8.886;2023-05-07T05:53:02;17.95;;;12.27;;
34144;SDS011;69555;53.014;8.886;2023-05-07T05:55:29;18.70;;;12.75;;
34144;SDS011;69555;53.014;8.886;2023-05-07T05:58:16;16.90;;;11.85;;
34144;SDS011;69555;53.014;8.886;2023-05-07T06:00:41;19.17;;;12.32;;
34144;SDS011;69555;53.014;8.886;2023-05-07T06:03:08;17.10;;;13.23;;
34144;SDS011;69555;53.014;8.886;2023-05-07T06:05:33;17.98;;;12.40;;
34144;SDS011;69555;53.014;8.886;2023-05-07T06:08:00;18.33;;;11.82;;
34144;SDS011;69555;53.014;8.886;2023-05-07T06:10:27;17.63;;;12.40;;
34144;SDS011;69555;53.014;8.886;2023-05-07T06:12:54;16.45;;;11.50;;
34144;SDS011;69555;53.014;8.886;2023-05-07T06:15:19;15.65;;;12.25;;
34144;SDS011;69555;53.014;8.886;2023-05-07T06:17:45;18.40;;;11.35;;
34144;SDS011;69555;53.014;8.886;2023-05-07T06:20:12;15.50;;;11.20;;
34144;SDS011;69555;53.014;8.886;2023-05-07T06:22:38;14.98;;;10.63;;
34144;SDS011;69555;53.014;8.886;2023-05-07T06:25:04;16.52;;;11.98;;
34144;SDS011;69555;53.014;8.886;2023-05-07T06:27:30;20.30;;;11.95;;
34144;SDS011;69555;53.014;8.886;2023-05-07T06:29:55;15.88;;;10.95;;
34144;SDS011;69555;53.014;8.886;2023-05-07T06:32:21;16.77;;;11.60;;
34144;SDS011;69555;53.014;8.886;2023-05-07T06:34:47;15.45;;;11.88;;
34144;SDS011;69555;53.014;8.886;2023-05-07T06:37:13;18.58;;;11.82;;
34144;SDS011;69555;53.014;8.886;2023-05-07T06:39:38;16.85;;;11.95;;
34144;SDS011;69555;53.014;8.886;2023-05-07T06:42:04;17.85;;;12.48;;
34144;SDS011;69555;53.014;8.886;2023-05-07T06:44:29;17.13;;;12.40;;
34144;SDS011;69555;53.014;8.886;2023-05-07T06:46:55;18.25;;;12.77;;
34144;SDS011;69555;53.014;8.886;2023-05-07T06:49:21;16.48;;;11.27;;
34144;SDS011;69555;53.014;8.886;2023-05-07T06:51:47;20.67;;;11.60;;
34144;SDS011;69555;53.014;8.886;2023-05-07T06:54:14;18.90;;;10.93;;
34144;SDS011;69555;53.014;8.886;2023-05-07T06:56:40;14.90;;;10.10;;
34144;SDS011;69555;53.014;8.886;2023-05-07T06:59:05;16.95;;;11.57;;
34144;SDS011;69555;53.014;8.886;2023-05-07T07:01:31;14.30;;;10.75;;
34144;SDS011;69555;53.014;8.886;2023-05-07T07:03:57;14.75;;;11.05;;
34144;SDS011;69555;53.014;8.886;2023-05-07T07:06:23;13.75;;;10.57;;
34144;SDS011;69555;53.014;8.886;2023-05-07T07:08:50;15.60;;;11.50;;
34144;SDS011;69555;53.014;8.886;2023-05-07T07:11:17;14.85;;;10.85;;
34144;SDS011;69555;53.014;8.886;2023-05-07T07:13:43;15.77;;;9.90;;
34144;SDS011;69555;53.014;8.886;2023-05-07T07:16:09;14.10;;;10.93;;
34144;SDS011;69555;53.014;8.886;2023-05-07T07:18:34;13.90;;;10.93;;
34144;SDS011;69555;53.014;8.886;2023-05-07T07:21:00;15.77;;;11.23;;
34144;SDS011;69555;53.014;8.886;2023-05-07T07:23:27;14.85;;;11.68;;
34144;SDS011;69555;53.014;8.886;2023-05-07T07:25:53;17.15;;;11.80;;
34144;SDS011;69555;53.014;8.886;2023-05-07T07:28:20;14.57;;;11.68;;
34144;SDS011;69555;53.014;8.886;2023-05-07T07:30:46;15.45;;;12.55;;
34144;SDS011;69555;53.014;8.886;2023-05-07T07:33:11;14.98;;;12.13;;
34144;SDS011;69555;53.014;8.886;2023-05-07T07:35:38;16.23;;;11.73;;
34144;SDS011;69555;53.014;8.886;2023-05-07T07:38:03;16.48;;;12.55;;
34144;SDS011;69555;53.014;8.886;2023-05-07T07:40:31;15.18;;;11.10;;
34144;SDS011;69555;53.014;8.886;2023-05-07T07:42:56;18.92;;;12.93;;
34144;SDS011;69555;53.014;8.886;2023-05-07T07:45:22;13.85;;;11.57;;
34144;SDS011;69555;53.014;8.886;2023-05-07T07:47:48;13.35;;;10.77;;
34144;SDS011;69555;53.014;8.886;2023-05-07T07:50:13;15.10;;;10.75;;
34144;SDS011;69555;53.014;8.886;2023-05-07T07:52:39;18.52;;;11.40;;
34144;SDS011;69555;53.014;8.886;2023-05-07T07:55:04;12.85;;;10.02;;
34144;SDS011;69555;53.014;8.886;2023-05-07T07:57:32;11.90;;;10.27;;
34144;SDS011;69555;53.014;8.886;2023-05-07T07:59:57;13.27;;;10.65;;
34144;SDS011;69555;53.014;8.886;2023-05-07T08:02:23;16.38;;;12.05;;
34144;SDS011;69555;53.014;8.886;2023-05-07T08:04:48;12.90;;;9.73;;
34144;SDS011;69555;53.014;8.886;2023-05-07T08:07:14;12.82;;;9.45;;
34144;SDS011;69555;53.014;8.886;2023-05-07T08:09:41;12.95;;;9.15;;
34144;SDS011;69555;53.014;8.886;2023-05-07T08:12:07;12.85;;;9.43;;
34144;SDS011;69555;53.014;8.886;2023-05-07T08:14:33;16.70;;;10.48;;
34144;SDS011;69555;53.014;8.886;2023-05-07T08:16:59;14.20;;;10.52;;
34144;SDS011;69555;53.014;8.886;2023-05-07T08:19:25;11.60;;;9.60;;
34144;SDS011;69555;53.014;8.886;2023-05-07T08:21:51;10.73;;;8.88;;
34144;SDS011;69555;53.014;8.886;2023-05-07T08:24:16;14.07;;;9.30;;
34144;SDS011;69555;53.014;8.886;2023-05-07T08:26:44;11.35;;;9.68;;
34144;SDS011;69555;53.014;8.886;2023-05-07T08:29:10;11.75;;;8.90;;
34144;SDS011;69555;53.014;8.886;2023-05-07T08:31:36;11.57;;;9.15;;
34144;SDS011;69555;53.014;8.886;2023-05-07T08:34:03;10.75;;;9.07;;
34144;SDS011;69555;53.014;8.886;2023-05-07T08:36:29;11.50;;;8.57;;
34144;SDS011;69555;53.014;8.886;2023-05-07T08:38:54;13.05;;;9.50;;
34144;SDS011;69555;53.014;8.886;2023-05-07T08:41:21;13.38;;;9.15;;
34144;SDS011;69555;53.014;8.886;2023-05-07T08:43:48;12.88;;;9.65;;
34144;SDS011;69555;53.014;8.886;2023-05-07T08:46:22;10.53;;;8.80;;
34144;SDS011;69555;53.014;8.886;2023-05-07T08:48:48;11.80;;;8.75;;
34144;SDS011;69555;53.014;8.886;2023-05-07T08:51:16;12.38;;;10.35;;
34144;SDS011;69555;53.014;8.886;2023-05-07T08:53:44;12.57;;;9.48;;
34144;SDS011;69555;53.014;8.886;2023-05-07T08:56:10;13.48;;;10.00;;
34144;SDS011;69555;53.014;8.886;2023-05-07T08:58:36;13.00;;;10.02;;
34144;SDS011;69555;53.014;8.886;2023-05-07T09:01:05;13.43;;;8.95;;
34144;SDS011;69555;53.014;8.886;2023-05-07T09:03:32;13.68;;;10.23;;
34144;SDS011;69555;53.014;8.886;2023-05-07T09:05:59;13.45;;;9.90;;
34144;SDS011;69555;53.014;8.886;2023-05-07T09:08:25;13.25;;;9.88;;
34144;SDS011;69555;53.014;8.886;2023-05-07T09:10:53;14.85;;;10.30;;
34144;SDS011;69555;53.014;8.886;2023-05-07T09:13:19;15.30;;;10.40;;
34144;SDS011;69555;53.014;8.886;2023-05-07T09:15:45;12.27;;;9.77;;
34144;SDS011;69555;53.014;8.886;2023-05-07T09:18:12;15.35;;;9.45;;
34144;SDS011;69555;53.014;8.886;2023-05-07T09:20:39;14.07;;;10.23;;
34144;SDS011;69555;53.014;8.886;2023-05-07T09:23:05;16.23;;;10.32;;
34144;SDS011;69555;53.014;8.886;2023-05-07T09:25:32;15.00;;;10.70;;
34144;SDS011;69555;53.014;8.886;2023-05-07T09:27:59;14.43;;;10.38;;
34144;SDS011;69555;53.014;8.886;2023-05-07T09:30:29;15.52;;;11.27;;
34144;SDS011;69555;53.014;8.886;2023-05-07T09:32:59;15.10;;;11.18;;
34144;SDS011;69555;53.014;8.886;2023-05-07T09:35:28;15.30;;;11.05;;
34144;SDS011;69555;53.014;8.886;2023-05-07T09:37:58;15.25;;;10.77;;
34144;SDS011;69555;53.014;8.886;2023-05-07T09:40:25;13.25;;;10.27;;
34144;SDS011;69555;53.014;8.886;2023-05-07T09:42:52;17.60;;;11.73;;
34144;SDS011;69555;53.014;8.886;2023-05-07T09:45:28;14.38;;;10.43;;
34144;SDS011;69555;53.014;8.886;2023-05-07T09:47:54;14.77;;;9.80;;
34144;SDS011;69555;53.014;8.886;2023-05-07T09:50:26;12.20;;;9.95;;
34144;SDS011;69555;53.014;8.886;2023-05-07T09:52:56;14.73;;;11.05;;
34144;SDS011;69555;53.014;8.886;2023-05-07T09:55:22;15.23;;;11.32;;
34144;SDS011;69555;53.014;8.886;2023-05-07T09:57:50;16.90;;;10.93;;
34144;SDS011;69555;53.014;8.886;2023-05-07T10:00:18;15.07;;;11.13;;
34144;SDS011;69555;53.014;8.886;2023-05-07T10:02:47;14.15;;;10.82;;
34144;SDS011;69555;53.014;8.886;2023-05-07T10:05:15;11.43;;;9.35;;
34144;SDS011;69555;53.014;8.886;2023-05-07T10:07:41;13.27;;;10.35;;
34144;SDS011;69555;53.014;8.886;2023-05-07T10:10:09;17.02;;;10.32;;
34144;SDS011;69555;53.014;8.886;2023-05-07T10:12:35;16.48;;;11.32;;
34144;SDS011;69555;53.014;8.886;2023-05-07T10:15:07;14.65;;;10.32;;
34144;SDS011;69555;53.014;8.886;2023-05-07T10:17:35;14.75;;;11.00;;
34144;SDS011;69555;53.014;8.886;2023-05-07T10:20:10;14.65;;;10.50;;
34144;SDS011;69555;53.014;8.886;2023-05-07T10:22:41;18.40;;;11.82;;
34144;SDS011;69555;53.014;8.886;2023-05-07T10:25:16;15.45;;;11.65;;
34144;SDS011;69555;53.014;8.886;2023-05-07T10:27:46;15.43;;;11.82;;
34144;SDS011;69555;53.014;8.886;2023-05-07T10:30:21;16.55;;;11.48;;
34144;SDS011;69555;53.014;8.886;2023-05-07T10:32:49;13.85;;;10.85;;
34144;SDS011;69555;53.014;8.886;2023-05-07T10:35:19;13.57;;;10.77;;
34144;SDS011;69555;53.014;8.886;2023-05-07T10:37:49;15.63;;;11.48;;
34144;SDS011;69555;53.014;8.886;2023-05-07T10:40:15;13.48;;;10.52;;
34144;SDS011;69555;53.014;8.886;2023-05-07T10:43:00;15.13;;;11.73;;
34144;SDS011;69555;53.014;8.886;2023-05-07T10:45:30;17.23;;;10.65;;
34144;SDS011;69555;53.014;8.886;2023-05-07T10:50:40;12.98;;;10.38;;
34144;SDS011;69555;53.014;8.886;2023-05-07T10:53:22;14.60;;;11.85;;
34144;SDS011;69555;53.014;8.886;2023-05-07T11:00:48;17.63;;;13.30;;
34144;SDS011;69555;53.014;8.886;2023-05-07T11:03:15;13.82;;;10.95;;
34144;SDS011;69555;53.014;8.886;2023-05-07T11:05:42;14.90;;;11.13;;
34144;SDS011;69555;53.014;8.886;2023-05-07T11:08:08;13.75;;;10.48;;
34144;SDS011;69555;53.014;8.886;2023-05-07T11:13:49;14.02;;;10.30;;
34144;SDS011;69555;53.014;8.886;2023-05-07T11:16:24;11.23;;;10.00;;
34144;SDS011;69555;53.014;8.886;2023-05-07T11:18:52;12.23;;;9.57;;
34144;SDS011;69555;53.014;8.886;2023-05-07T11:24:05;10.88;;;9.77;;
34144;SDS011;69555;53.014;8.886;2023-05-07T11:29:18;12.30;;;10.25;;
34144;SDS011;69555;53.014;8.886;2023-05-07T11:31:48;15.43;;;10.40;;
34144;SDS011;69555;53.014;8.886;2023-05-07T11:34:15;13.50;;;10.35;;
34144;SDS011;69555;53.014;8.886;2023-05-07T11:36:46;13.40;;;9.70;;
34144;SDS011;69555;53.014;8.886;2023-05-07T11:39:29;11.73;;;9.88;;
34144;SDS011;69555;53.014;8.886;2023-05-07T11:41:57;12.93;;;10.30;;
34144;SDS011;69555;53.014;8.886;2023-05-07T11:44:23;13.00;;;9.23;;
34144;SDS011;69555;53.014;8.886;2023-05-07T11:46:49;13.15;;;8.55;;
34144;SDS011;69555;53.014;8.886;2023-05-07T11:49:16;12.10;;;9.15;;
34144;SDS011;69555;53.014;8.886;2023-05-07T11:51:43;15.13;;;8.70;;
34144;SDS011;69555;53.014;8.886;2023-05-07T11:54:09;10.60;;;8.65;;
34144;SDS011;69555;53.014;8.886;2023-05-07T11:56:36;13.18;;;9.38;;
34144;SDS011;69555;53.014;8.886;2023-05-07T11:59:02;10.55;;;9.40;;
34144;SDS011;69555;53.014;8.886;2023-05-07T12:01:28;11.50;;;8.88;;
34144;SDS011;69555;53.014;8.886;2023-05-07T12:03:54;14.52;;;9.07;;
34144;SDS011;69555;53.014;8.886;2023-05-07T12:06:21;10.13;;;9.07;;
34144;SDS011;69555;53.014;8.886;2023-05-07T12:08:46;10.57;;;8.40;;
34144;SDS011;69555;53.014;8.886;2023-05-07T12:11:14;11.05;;;8.63;;
34144;SDS011;69555;53.014;8.886;2023-05-07T12:13:43;11.27;;;8.93;;
34144;SDS011;69555;53.014;8.886;2023-05-07T12:16:09;11.63;;;9.73;;
34144;SDS011;69555;53.014;8.886;2023-05-07T12:18:36;10.05;;;8.20;;
34144;SDS011;69555;53.014;8.886;2023-05-07T12:21:03;11.50;;;8.55;;
34144;SDS011;69555;53.014;8.886;2023-05-07T12:23:30;9.07;;;7.80;;
34144;SDS011;69555;53.014;8.886;2023-05-07T12:25:55;11.55;;;8.40;;
34144;SDS011;69555;53.014;8.886;2023-05-07T12:28:21;14.55;;;9.23;;
34144;SDS011;69555;53.014;8.886;2023-05-07T12:30:48;13.07;;;10.18;;
34144;SDS011;69555;53.014;8.886;2023-05-07T12:33:17;10.27;;;8.15;;
34144;SDS011;69555;53.014;8.886;2023-05-07T12:35:47;9.68;;;7.95;;
34144;SDS011;69555;53.014;8.886;2023-05-07T12:38:14;13.05;;;9.88;;
34144;SDS011;69555;53.014;8.886;2023-05-07T12:40:45;13.95;;;8.95;;
34144;SDS011;69555;53.014;8.886;2023-05-07T12:43:16;9.43;;;8.27;;
34144;SDS011;69555;53.014;8.886;2023-05-07T12:45:46;10.27;;;7.88;;
34144;SDS011;69555;53.014;8.886;2023-05-07T12:48:13;10.15;;;7.88;;
34144;SDS011;69555;53.014;8.886;2023-05-07T12:50:39;9.20;;;7.15;;
34144;SDS011;69555;53.014;8.886;2023-05-07T12:53:06;8.85;;;7.95;;
34144;SDS011;69555;53.014;8.886;2023-05-07T12:55:39;9.20;;;7.30;;
34144;SDS011;69555;53.014;8.886;2023-05-07T12:58:15;8.90;;;7.15;;
34144;SDS011;69555;53.014;8.886;2023-05-07T13:00:43;14.93;;;6.88;;
34144;SDS011;69555;53.014;8.886;2023-05-07T13:03:09;9.15;;;6.82;;
34144;SDS011;69555;53.014;8.886;2023-05-07T13:05:37;7.75;;;6.38;;
34144;SDS011;69555;53.014;8.886;2023-05-07T13:08:03;8.13;;;6.63;;
34144;SDS011;69555;53.014;8.886;2023-05-07T13:10:30;7.82;;;6.53;;
34144;SDS011;69555;53.014;8.886;2023-05-07T13:12:55;10.93;;;6.20;;
34144;SDS011;69555;53.014;8.886;2023-05-07T13:15:21;8.98;;;6.18;;
34144;SDS011;69555;53.014;8.886;2023-05-07T13:17:46;8.52;;;5.72;;
34144;SDS011;69555;53.014;8.886;2023-05-07T13:20:12;8.23;;;6.10;;
34144;SDS011;69555;53.014;8.886;2023-05-07T13:22:39;7.03;;;5.35;;
34144;SDS011;69555;53.014;8.886;2023-05-07T13:25:05;6.55;;;5.50;;
34144;SDS011;69555;53.014;8.886;2023-05-07T13:27:31;7.20;;;5.55;;
34144;SDS011;69555;53.014;8.886;2023-05-07T13:29:56;6.47;;;5.57;;
34144;SDS011;69555;53.014;8.886;2023-05-07T13:32:22;6.03;;;5.43;;
34144;SDS011;69555;53.014;8.886;2023-05-07T13:34:47;6.38;;;5.25;;
34144;SDS011;69555;53.014;8.886;2023-05-07T13:37:13;15.32;;;6.72;;
34144;SDS011;69555;53.014;8.886;2023-05-07T13:39:40;6.72;;;6.03;;
34144;SDS011;69555;53.014;8.886;2023-05-07T13:42:07;8.30;;;6.15;;
34144;SDS011;69555;53.014;8.886;2023-05-07T13:44:33;7.57;;;6.68;;
34144;SDS011;69555;53.014;8.886;2023-05-07T13:46:59;6.82;;;5.25;;
34144;SDS011;69555;53.014;8.886;2023-05-07T13:49:27;6.90;;;5.75;;
34144;SDS011;69555;53.014;8.886;2023-05-07T13:51:53;8.10;;;6.28;;
34144;SDS011;69555;53.014;8.886;2023-05-07T13:54:20;7.55;;;6.45;;
34144;SDS011;69555;53.014;8.886;2023-05-07T13:56:45;7.32;;;6.18;;
34144;SDS011;69555;53.014;8.886;2023-05-07T13:59:11;7.85;;;6.35;;
34144;SDS011;69555;53.014;8.886;2023-05-07T14:01:39;8.68;;;7.07;;
34144;SDS011;69555;53.014;8.886;2023-05-07T14:04:04;7.88;;;6.60;;
34144;SDS011;69555;53.014;8.886;2023-05-07T14:06:31;12.02;;;6.93;;
34144;SDS011;69555;53.014;8.886;2023-05-07T14:08:58;7.38;;;6.35;;
34144;SDS011;69555;53.014;8.886;2023-05-07T14:11:24;10.32;;;6.78;;
34144;SDS011;69555;53.014;8.886;2023-05-07T14:13:50;8.35;;;7.47;;
34144;SDS011;69555;53.014;8.886;2023-05-07T14:16:15;7.85;;;7.05;;
34144;SDS011;69555;53.014;8.886;2023-05-07T14:18:40;10.60;;;7.07;;
34144;SDS011;69555;53.014;8.886;2023-05-07T14:21:07;10.35;;;7.97;;
34144;SDS011;69555;53.014;8.886;2023-05-07T14:23:35;8.57;;;7.68;;
34144;SDS011;69555;53.014;8.886;2023-05-07T14:26:01;11.02;;;8.63;;
34144;SDS011;69555;53.014;8.886;2023-05-07T14:28:28;8.98;;;7.25;;
34144;SDS011;69555;53.014;8.886;2023-05-07T14:30:54;8.63;;;7.53;;
34144;SDS011;69555;53.014;8.886;2023-05-07T14:33:21;9.05;;;7.93;;
34144;SDS011;69555;53.014;8.886;2023-05-07T14:35:46;10.50;;;7.93;;
34144;SDS011;69555;53.014;8.886;2023-05-07T14:38:15;14.38;;;8.30;;
34144;SDS011;69555;53.014;8.886;2023-05-07T14:40:40;10.50;;;8.32;;